createdAt,value
2018-05-06T00:02:09.928Z,6.10
2018-05-06T00:04:37.332Z,4.97
2018-05-06T00:07:04.748Z,6.85
2018-05-06T00:09:32.157Z,6.10
2018-05-06T00:11:59.565Z,7.05
2018-05-06T00:14:26.972Z,6.87
2018-05-06T00:16:54.405Z,6.45
2018-05-06T00:19:21.804Z,8.57
2018-05-06T00:21:49.224Z,6.32
2018-05-06T00:24:16.635Z,6.10
2018-05-06T00:26:44.045Z,7.95
2018-05-06T00:29:11.468Z,10.27
2018-05-06T00:31:38.884Z,7.32
2018-05-06T00:34:06.300Z,18.12
2018-05-06T00:36:33.728Z,7.10
2018-05-06T00:39:01.141Z,9.07
2018-05-06T00:41:28.556Z,11.93
2018-05-06T00:43:56.013Z,9.13
2018-05-06T00:46:23.495Z,7.68
2018-05-06T00:48:50.828Z,9.48
2018-05-06T00:51:18.246Z,6.68
2018-05-06T00:53:45.651Z,7.65
2018-05-06T00:56:13.057Z,7.25
2018-05-06T00:58:40.469Z,8.38
2018-05-06T01:01:07.882Z,7.45
2018-05-06T01:03:35.296Z,7.47
2018-05-06T01:06:02.704Z,9.77
2018-05-06T01:08:30.127Z,7.53
2018-05-06T01:10:57.536Z,10.68
2018-05-06T01:13:24.956Z,6.90
2018-05-06T01:15:52.385Z,7.68
2018-05-06T01:18:19.809Z,6.25
2018-05-06T01:20:47.208Z,7.28
2018-05-06T01:23:14.632Z,6.40
2018-05-06T01:25:42.043Z,8.10
2018-05-06T01:28:09.457Z,7.53
2018-05-06T01:30:36.863Z,7.62
2018-05-06T01:33:04.280Z,6.78
2018-05-06T01:35:31.684Z,7.90
2018-05-06T01:37:59.132Z,4.03
2018-05-06T01:40:26.533Z,5.85
2018-05-06T01:42:53.945Z,5.47
2018-05-06T01:45:21.357Z,5.93
2018-05-06T01:47:48.769Z,4.30
2018-05-06T01:50:16.176Z,5.18
2018-05-06T01:52:43.596Z,6.07
2018-05-06T01:55:11.012Z,8.23
2018-05-06T01:57:38.429Z,4.12
2018-05-06T02:00:05.837Z,6.53
2018-05-06T02:02:33.253Z,5.37
2018-05-06T02:05:00.664Z,6.12
2018-05-06T02:07:28.069Z,4.32
2018-05-06T02:09:55.477Z,6.45
2018-05-06T02:12:22.922Z,6.65
2018-05-06T02:14:50.323Z,4.32
2018-05-06T02:17:17.724Z,8.93
2018-05-06T02:19:45.144Z,5.85
2018-05-06T02:22:12.547Z,3.67
2018-05-06T02:24:39.960Z,5.50
2018-05-06T02:27:07.368Z,3.83
2018-05-06T02:29:34.792Z,5.53
2018-05-06T02:32:02.205Z,5.72
2018-05-06T02:34:29.617Z,3.85
2018-05-06T02:36:57.025Z,4.55
2018-05-06T02:39:24.439Z,5.85
2018-05-06T02:41:51.848Z,3.47
2018-05-06T02:44:19.271Z,6.37
2018-05-06T02:46:46.667Z,5.15
2018-05-06T02:49:14.076Z,5.50
2018-05-06T02:51:41.484Z,4.22
2018-05-06T02:54:08.908Z,4.20
2018-05-06T02:56:36.312Z,4.90
2018-05-06T02:59:03.724Z,4.10
2018-05-06T03:01:31.133Z,6.12
2018-05-06T03:03:58.546Z,4.93
2018-05-06T03:06:25.952Z,4.80
2018-05-06T03:08:53.370Z,6.80
2018-05-06T03:11:20.775Z,5.60
2018-05-06T03:13:48.188Z,5.25
2018-05-06T03:16:15.691Z,3.75
2018-05-06T03:18:43.175Z,4.68
2018-05-06T03:21:10.507Z,6.43
2018-05-06T03:23:37.924Z,7.07
2018-05-06T03:26:05.328Z,5.25
2018-05-06T03:28:32.748Z,5.97
2018-05-06T03:31:00.147Z,6.78
2018-05-06T03:33:27.567Z,7.43
2018-05-06T03:35:54.977Z,3.78
2018-05-06T03:38:22.388Z,5.72
2018-05-06T03:40:49.799Z,6.22
2018-05-06T03:43:17.208Z,6.18
2018-05-06T03:45:44.649Z,3.37
2018-05-06T03:48:12.088Z,7.28
2018-05-06T03:50:39.489Z,5.97
2018-05-06T03:53:06.893Z,5.05
2018-05-06T03:55:34.336Z,4.28
2018-05-06T03:58:13.656Z,8.18
2018-05-06T04:00:42.656Z,6.20
2018-05-06T04:03:10.065Z,6.40
2018-05-06T04:05:37.484Z,4.85
2018-05-06T04:08:04.886Z,4.00
2018-05-06T04:10:33.125Z,5.70
2018-05-06T04:13:00.522Z,6.85
2018-05-06T04:15:27.945Z,4.40
2018-05-06T04:17:55.348Z,5.60
2018-05-06T04:20:22.764Z,4.82
2018-05-06T04:22:50.209Z,4.55
2018-05-06T04:25:17.616Z,3.92
2018-05-06T04:27:45.021Z,5.05
2018-05-06T04:30:12.437Z,6.00
2018-05-06T04:32:39.848Z,5.65
2018-05-06T04:35:07.272Z,7.12
2018-05-06T04:37:34.674Z,3.22
2018-05-06T04:40:02.088Z,4.62
2018-05-06T04:42:29.515Z,6.00
2018-05-06T04:44:56.924Z,5.82
2018-05-06T04:47:24.332Z,6.05
2018-05-06T04:49:51.740Z,4.82
2018-05-06T04:52:19.148Z,4.35
2018-05-06T04:54:46.582Z,3.45
2018-05-06T04:57:13.979Z,3.15
2018-05-06T04:59:41.391Z,4.80
2018-05-06T05:02:08.796Z,4.15
2018-05-06T05:04:36.208Z,5.20
2018-05-06T05:07:03.616Z,4.12
2018-05-06T05:09:31.063Z,3.08
2018-05-06T05:11:58.443Z,4.45
2018-05-06T05:14:25.859Z,3.97
2018-05-06T05:16:53.264Z,3.90
2018-05-06T05:19:20.691Z,4.80
2018-05-06T05:21:48.095Z,3.58
2018-05-06T05:24:15.521Z,2.95
2018-05-06T05:26:42.927Z,2.55
2018-05-06T05:29:10.324Z,2.55
2018-05-06T05:31:37.735Z,3.00
2018-05-06T05:34:05.142Z,3.72
2018-05-06T05:36:32.557Z,4.43
2018-05-06T05:38:59.962Z,4.55
2018-05-06T05:41:27.377Z,3.92
2018-05-06T05:43:54.785Z,6.70
2018-05-06T05:46:22.192Z,3.90
2018-05-06T05:48:49.595Z,3.53
2018-05-06T05:51:17.012Z,7.15
2018-05-06T05:53:44.417Z,3.10
2018-05-06T05:56:11.832Z,4.50
2018-05-06T05:58:39.236Z,3.97
2018-05-06T06:01:06.654Z,3.87
2018-05-06T06:03:34.063Z,5.05
2018-05-06T06:06:01.471Z,4.15
2018-05-06T06:08:28.880Z,4.60
2018-05-06T06:10:56.292Z,3.62
2018-05-06T06:13:23.688Z,4.20
2018-05-06T06:15:51.101Z,4.78
2018-05-06T06:18:18.511Z,6.70
2018-05-06T06:20:45.923Z,3.22
2018-05-06T06:23:13.320Z,5.10
2018-05-06T06:25:40.768Z,3.40
2018-05-06T06:28:08.201Z,4.95
2018-05-06T06:30:35.613Z,5.35
2018-05-06T06:33:03.086Z,6.55
2018-05-06T06:35:30.438Z,6.87
2018-05-06T06:37:57.848Z,4.40
2018-05-06T06:40:25.255Z,4.62
2018-05-06T06:42:52.668Z,3.35
2018-05-06T06:45:20.075Z,5.37
2018-05-06T06:47:47.484Z,4.82
2018-05-06T06:50:14.900Z,6.30
2018-05-06T06:52:42.308Z,4.95
2018-05-06T06:55:09.721Z,5.80
2018-05-06T06:57:37.199Z,4.75
2018-05-06T07:00:04.560Z,9.50
2018-05-06T07:02:31.966Z,7.03
2018-05-06T07:04:59.367Z,4.97
2018-05-06T07:07:26.785Z,6.05
2018-05-06T07:09:54.189Z,4.93
2018-05-06T07:12:21.601Z,6.20
2018-05-06T07:14:49.020Z,9.63
2018-05-06T07:17:16.441Z,8.18
2018-05-06T07:19:43.844Z,4.65
2018-05-06T07:22:11.273Z,8.63
2018-05-06T07:24:38.669Z,5.72
2018-05-06T07:27:06.101Z,5.30
2018-05-06T07:29:33.512Z,7.85
2018-05-06T07:32:00.920Z,6.93
2018-05-06T07:34:28.323Z,5.55
2018-05-06T07:36:55.745Z,6.35
2018-05-06T07:39:23.149Z,5.00
2018-05-06T07:41:50.555Z,8.32
2018-05-06T07:44:17.976Z,7.75
2018-05-06T07:46:45.375Z,6.37
2018-05-06T07:49:12.784Z,7.30
2018-05-06T07:51:40.200Z,7.15
2018-05-06T07:54:07.606Z,7.70
2018-05-06T07:56:35.024Z,7.78
2018-05-06T07:59:02.435Z,11.40
2018-05-06T08:01:29.861Z,15.30
2018-05-06T08:03:57.278Z,13.18
2018-05-06T08:06:24.692Z,17.52
2018-05-06T08:08:52.115Z,13.98
2018-05-06T08:11:19.540Z,21.80
2018-05-06T08:13:46.951Z,11.98
2018-05-06T08:16:14.406Z,13.15
2018-05-06T08:18:41.787Z,15.75
2018-05-06T08:21:09.208Z,13.48
2018-05-06T08:23:36.615Z,12.85
2018-05-06T08:26:04.051Z,14.80
2018-05-06T08:28:31.462Z,11.93
2018-05-06T08:30:58.884Z,15.63
2018-05-06T08:33:26.300Z,11.93
2018-05-06T08:35:53.725Z,18.83
2018-05-06T08:38:21.172Z,18.50
2018-05-06T08:40:48.584Z,14.87
2018-05-06T08:43:16.001Z,16.35
2018-05-06T08:45:43.494Z,17.27
2018-05-06T08:48:10.841Z,20.17
2018-05-06T08:50:38.256Z,18.40
2018-05-06T08:53:05.680Z,18.40
2018-05-06T08:55:33.096Z,16.55
2018-05-06T08:58:00.508Z,20.73
2018-05-06T09:00:27.928Z,24.17
2018-05-06T09:02:55.349Z,30.48
2018-05-06T09:05:22.769Z,22.15
2018-05-06T09:07:50.181Z,32.50
2018-05-06T09:10:17.596Z,40.53
2018-05-06T09:12:45.021Z,33.00
2018-05-06T09:15:12.433Z,37.55
2018-05-06T09:17:39.860Z,45.08
2018-05-06T09:20:07.277Z,23.20
2018-05-06T09:22:34.701Z,43.00
2018-05-06T09:25:02.120Z,37.80
2018-05-06T09:27:29.536Z,29.92
2018-05-06T09:29:56.952Z,25.15
2018-05-06T09:32:24.459Z,28.50
2018-05-06T09:34:51.792Z,26.00
2018-05-06T09:37:19.240Z,29.30
2018-05-06T09:39:46.655Z,37.75
2018-05-06T09:42:14.067Z,35.08
2018-05-06T09:44:41.484Z,44.92
2018-05-06T09:47:08.906Z,38.83
2018-05-06T09:49:36.317Z,38.20
2018-05-06T09:52:03.744Z,45.92
2018-05-06T09:54:31.156Z,39.25
2018-05-06T09:56:58.584Z,42.83
2018-05-06T09:59:26.133Z,34.83
2018-05-06T10:01:53.551Z,42.10
2018-05-06T10:04:20.968Z,43.75
2018-05-06T10:06:48.417Z,36.33
2018-05-06T10:09:15.832Z,50.45
2018-05-06T10:11:43.256Z,29.37
2018-05-06T10:14:10.706Z,40.88
2018-05-06T10:16:38.124Z,47.22
2018-05-06T10:19:05.545Z,40.95
2018-05-06T10:21:32.956Z,41.53
2018-05-06T10:24:00.380Z,41.63
2018-05-06T10:26:27.811Z,37.45
2018-05-06T10:28:55.307Z,44.72
2018-05-06T10:31:22.737Z,42.72
2018-05-06T10:33:50.173Z,44.47
2018-05-06T10:36:17.605Z,48.67
2018-05-06T10:38:45.025Z,57.88
2018-05-06T10:41:12.480Z,55.75
2018-05-06T10:43:39.903Z,35.95
2018-05-06T10:46:07.317Z,44.03
2018-05-06T10:48:34.773Z,41.22
2018-05-06T10:51:02.188Z,37.40
2018-05-06T10:53:29.619Z,35.90
2018-05-06T10:55:57.042Z,54.47
2018-05-06T10:58:24.464Z,50.10
2018-05-06T11:00:51.890Z,68.03
2018-05-06T11:03:19.327Z,58.22
2018-05-06T11:05:46.765Z,58.85
2018-05-06T11:08:14.240Z,61.85
2018-05-06T11:10:41.656Z,56.55
2018-05-06T11:13:09.149Z,43.80
2018-05-06T11:15:36.589Z,51.33
2018-05-06T11:18:04.018Z,63.78
2018-05-06T11:20:32.630Z,41.30
2018-05-06T11:23:00.064Z,39.65
2018-05-06T11:25:27.472Z,52.05
2018-05-06T11:27:54.901Z,43.90
2018-05-06T11:30:22.312Z,51.72
2018-05-06T11:32:49.736Z,50.58
2018-05-06T11:35:17.188Z,42.65
2018-05-06T11:37:44.620Z,48.28
2018-05-06T11:40:12.045Z,54.00
2018-05-06T11:42:39.480Z,39.72
2018-05-06T11:45:06.896Z,45.60
2018-05-06T11:47:34.317Z,38.80
2018-05-06T11:50:01.737Z,36.50
2018-05-06T11:52:29.144Z,50.33
2018-05-06T11:54:56.569Z,41.63
2018-05-06T11:57:23.988Z,46.90
2018-05-06T11:59:51.420Z,55.65
2018-05-06T12:02:18.870Z,70.30
2018-05-06T12:04:46.260Z,40.00
2018-05-06T12:07:13.667Z,78.97
2018-05-06T12:09:41.087Z,55.60
2018-05-06T12:12:08.504Z,66.72
2018-05-06T12:14:35.931Z,53.30
2018-05-06T12:17:03.359Z,74.55
2018-05-06T12:19:30.792Z,71.20
2018-05-06T12:21:58.273Z,88.15
2018-05-06T12:24:25.632Z,81.12
2018-05-06T12:26:53.043Z,59.55
2018-05-06T12:29:20.510Z,61.22
2018-05-06T12:31:47.924Z,79.75
2018-05-06T12:34:15.349Z,53.65
2018-05-06T12:36:42.760Z,61.63
2018-05-06T12:39:10.189Z,75.00
2018-05-06T12:41:37.603Z,84.82
2018-05-06T12:44:05.035Z,65.07
2018-05-06T12:46:32.453Z,57.88
2018-05-06T12:48:59.880Z,47.50
2018-05-06T12:51:27.296Z,78.97
2018-05-06T12:53:54.720Z,71.62
2018-05-06T12:56:22.159Z,67.12
2018-05-06T12:58:49.584Z,65.68
2018-05-06T13:01:17.004Z,91.37
2018-05-06T13:03:44.441Z,93.25
2018-05-06T13:06:11.848Z,80.32
2018-05-06T13:08:39.267Z,82.15
2018-05-06T13:11:06.700Z,60.80
2018-05-06T13:13:34.127Z,59.28
2018-05-06T13:16:01.540Z,70.40
2018-05-06T13:18:28.960Z,63.85
2018-05-06T13:20:56.381Z,56.97
2018-05-06T13:23:23.804Z,65.78
2018-05-06T13:25:51.221Z,78.30
2018-05-06T13:28:18.656Z,70.12
2018-05-06T13:30:46.076Z,64.60
2018-05-06T13:33:13.488Z,77.78
2018-05-06T13:35:40.931Z,95.62
2018-05-06T13:38:08.344Z,85.40
2018-05-06T13:40:35.765Z,57.95
2018-05-06T13:43:03.184Z,55.95
2018-05-06T13:45:30.607Z,55.10
2018-05-06T13:47:58.016Z,53.63
2018-05-06T13:50:25.440Z,65.32
2018-05-06T13:52:52.849Z,56.75
2018-05-06T13:55:20.273Z,72.70
2018-05-06T13:57:47.682Z,95.05
2018-05-06T14:00:15.108Z,106.72
2018-05-06T14:02:42.612Z,85.22
2018-05-06T14:05:09.956Z,82.62
2018-05-06T14:07:37.378Z,139.15
2018-05-06T14:10:04.804Z,85.25
2018-05-06T14:12:32.257Z,72.97
2018-05-06T14:14:59.676Z,66.10
2018-05-06T14:17:27.092Z,83.05
2018-05-06T14:19:54.518Z,75.25
2018-05-06T14:22:21.932Z,139.48
2018-05-06T14:24:49.360Z,105.10
2018-05-06T14:27:16.776Z,60.83
2018-05-06T14:29:44.200Z,72.43
2018-05-06T14:32:11.604Z,72.28
2018-05-06T14:34:39.033Z,84.95
2018-05-06T14:37:06.445Z,93.50
2018-05-06T14:39:33.892Z,63.42
2018-05-06T14:42:01.288Z,82.35
2018-05-06T14:44:28.708Z,58.63
2018-05-06T14:47:07.904Z,83.40
2018-05-06T14:49:35.338Z,96.72
2018-05-06T14:52:02.764Z,84.70
2018-05-06T14:54:30.200Z,92.93
2018-05-06T14:56:57.625Z,95.65
2018-05-06T14:59:25.036Z,82.57
2018-05-06T15:01:52.461Z,79.60
2018-05-06T15:04:19.872Z,94.80
2018-05-06T15:06:47.297Z,80.72
2018-05-06T15:09:14.713Z,75.10
2018-05-06T15:11:42.168Z,112.80
2018-05-06T15:14:09.575Z,88.80
2018-05-06T15:16:37.004Z,97.25
2018-05-06T15:19:04.417Z,72.18
2018-05-06T15:21:31.840Z,91.95
2018-05-06T15:23:59.252Z,59.70
2018-05-06T15:26:26.677Z,54.47
2018-05-06T15:28:54.097Z,69.68
2018-05-06T15:31:21.517Z,78.57
2018-05-06T15:33:48.924Z,80.70
2018-05-06T15:36:16.357Z,76.85
2018-05-06T15:38:43.765Z,65.90
2018-05-06T15:41:11.284Z,78.45
2018-05-06T15:43:38.608Z,86.12
2018-05-06T15:46:06.027Z,67.60
2018-05-06T15:48:33.440Z,51.25
2018-05-06T15:51:00.881Z,62.65
2018-05-06T15:53:28.296Z,49.28
2018-05-06T15:55:55.719Z,71.18
2018-05-06T15:58:23.132Z,53.35
2018-05-06T16:00:50.544Z,69.90
2018-05-06T16:03:29.765Z,56.70
2018-05-06T16:05:57.233Z,50.08
2018-05-06T16:08:24.643Z,61.28
2018-05-06T16:10:52.056Z,54.92
2018-05-06T16:13:19.500Z,43.17
2018-05-06T16:15:46.922Z,36.42
2018-05-06T16:18:14.335Z,53.50
2018-05-06T16:20:41.781Z,42.70
2018-05-06T16:23:09.218Z,28.95
2018-05-06T16:25:36.626Z,22.02
2018-05-06T16:28:04.044Z,30.42
2018-05-06T16:30:31.470Z,22.60
2018-05-06T16:32:58.887Z,24.08
2018-05-06T16:35:26.312Z,30.42
2018-05-06T16:37:53.752Z,26.15
2018-05-06T16:40:21.163Z,26.25
2018-05-06T16:42:48.610Z,22.10
2018-05-06T16:45:16.023Z,41.10
2018-05-06T16:47:43.435Z,46.30
2018-05-06T16:50:10.860Z,34.97
2018-05-06T16:52:38.290Z,34.17
2018-05-06T16:55:05.700Z,38.72
2018-05-06T16:57:33.118Z,28.45
2018-05-06T17:00:00.536Z,28.55
2018-05-06T17:02:27.994Z,23.40
2018-05-06T17:04:55.412Z,31.62
2018-05-06T17:07:22.834Z,26.15
2018-05-06T17:09:50.300Z,21.87
2018-05-06T17:12:17.730Z,24.70
2018-05-06T17:14:45.141Z,21.33
2018-05-06T17:17:12.557Z,25.40
2018-05-06T17:19:39.984Z,36.33
2018-05-06T17:22:07.424Z,34.33
2018-05-06T17:24:34.833Z,26.83
2018-05-06T17:27:02.256Z,21.52
2018-05-06T17:29:29.697Z,30.33
2018-05-06T17:31:57.158Z,35.92
2018-05-06T17:34:24.606Z,37.10
2018-05-06T17:36:52.011Z,38.08
2018-05-06T17:39:19.443Z,27.30
2018-05-06T17:41:46.865Z,25.67
2018-05-06T17:44:14.272Z,29.15
2018-05-06T17:46:41.688Z,21.45
2018-05-06T17:49:09.104Z,27.95
2018-05-06T17:51:36.528Z,39.88
2018-05-06T17:54:03.942Z,26.27
2018-05-06T17:56:31.381Z,33.60
2018-05-06T17:58:58.792Z,25.17
2018-05-06T18:01:26.217Z,31.35
2018-05-06T18:03:53.645Z,31.85
2018-05-06T18:06:21.061Z,32.00
2018-05-06T18:08:48.490Z,23.85
2018-05-06T18:11:15.911Z,24.15
2018-05-06T18:13:43.319Z,32.63
2018-05-06T18:16:10.773Z,31.02
2018-05-06T18:18:38.185Z,25.17
2018-05-06T18:21:05.608Z,27.42
2018-05-06T18:23:33.019Z,30.20
2018-05-06T18:26:00.441Z,33.03
2018-05-06T18:28:27.852Z,22.83
2018-05-06T18:30:55.279Z,23.20
2018-05-06T18:33:22.688Z,24.33
2018-05-06T18:35:50.116Z,19.12
2018-05-06T18:38:17.529Z,22.73
2018-05-06T18:40:44.940Z,32.33
2018-05-06T18:43:12.360Z,22.92
2018-05-06T18:45:39.781Z,19.17
2018-05-06T18:48:07.211Z,23.70
2018-05-06T18:50:34.631Z,20.08
2018-05-06T18:53:02.055Z,20.10
2018-05-06T18:55:29.465Z,31.42
2018-05-06T18:57:56.909Z,17.33
2018-05-06T19:00:24.325Z,17.80
2018-05-06T19:02:51.748Z,23.95
2018-05-06T19:05:19.162Z,20.20
2018-05-06T19:07:46.580Z,29.50
2018-05-06T19:10:13.997Z,21.17
2018-05-06T19:12:41.416Z,25.40
2018-05-06T19:15:08.828Z,32.58
2018-05-06T19:17:36.311Z,28.05
2018-05-06T19:20:03.680Z,21.35
2018-05-06T19:22:31.108Z,21.02
2018-05-06T19:24:58.524Z,19.75
2018-05-06T19:27:25.948Z,29.70
2018-05-06T19:29:53.380Z,16.48
2018-05-06T19:32:20.809Z,16.67
2018-05-06T19:34:48.229Z,21.35
2018-05-06T19:37:15.650Z,21.05
2018-05-06T19:39:43.141Z,22.25
2018-05-06T19:42:10.480Z,17.45
2018-05-06T19:44:37.901Z,19.27
2018-05-06T19:47:05.323Z,12.27
2018-05-06T19:49:32.740Z,26.48
2018-05-06T19:52:00.160Z,20.60
2018-05-06T19:54:27.596Z,22.00
2018-05-06T19:56:55.002Z,23.50
2018-05-06T19:59:22.424Z,24.73
2018-05-06T20:01:49.838Z,19.40
2018-05-06T20:04:17.252Z,29.37
2018-05-06T20:06:44.668Z,18.83
2018-05-06T20:09:12.105Z,17.67
2018-05-06T20:11:39.511Z,15.45
2018-05-06T20:14:06.932Z,14.55
2018-05-06T20:16:34.348Z,16.27
2018-05-06T20:19:01.770Z,22.27
2018-05-06T20:21:29.273Z,16.35
2018-05-06T20:23:56.602Z,12.82
2018-05-06T20:26:24.022Z,11.57
2018-05-06T20:28:51.432Z,11.70
2018-05-06T20:31:18.861Z,12.55
2018-05-06T20:33:46.269Z,15.40
2018-05-06T20:36:13.697Z,14.77
2018-05-06T20:38:41.123Z,15.25
2018-05-06T20:41:08.539Z,12.85
2018-05-06T20:43:35.957Z,13.25
2018-05-06T20:46:03.384Z,12.07
2018-05-06T20:48:30.802Z,14.43
2018-05-06T20:50:58.213Z,9.05
2018-05-06T20:53:25.623Z,9.90
2018-05-06T20:55:53.045Z,9.70
2018-05-06T20:58:20.508Z,15.85
2018-05-06T21:00:47.919Z,14.30
2018-05-06T21:03:15.332Z,14.60
2018-05-06T21:05:42.769Z,15.55
2018-05-06T21:08:10.176Z,15.55
2018-05-06T21:10:37.609Z,15.95
2018-05-06T21:13:05.029Z,13.93
2018-05-06T21:15:32.440Z,14.40
2018-05-06T21:17:59.859Z,12.80
2018-05-06T21:20:27.268Z,9.98
2018-05-06T21:22:54.695Z,11.95
2018-05-06T21:25:22.135Z,9.90
2018-05-06T21:27:49.553Z,9.35
2018-05-06T21:30:16.972Z,11.60
2018-05-06T21:32:44.385Z,9.15
2018-05-06T21:35:11.799Z,12.55
2018-05-06T21:37:39.296Z,7.40
2018-05-06T21:40:06.663Z,9.38
2018-05-06T21:42:34.076Z,8.23
2018-05-06T21:45:01.519Z,8.13
2018-05-06T21:47:28.891Z,5.62
2018-05-06T21:49:56.328Z,7.45
2018-05-06T21:52:23.719Z,7.37
2018-05-06T21:54:51.133Z,5.65
2018-05-06T21:57:18.547Z,4.10
2018-05-06T21:59:45.943Z,8.75
2018-05-06T22:02:13.376Z,8.40
2018-05-06T22:04:40.791Z,10.10
2018-05-06T22:07:08.200Z,5.75
2018-05-06T22:09:35.615Z,6.25
2018-05-06T22:12:03.015Z,7.97
2018-05-06T22:14:30.432Z,7.55
2018-05-06T22:16:57.843Z,5.12
2018-05-06T22:19:25.288Z,5.53
2018-05-06T22:21:52.673Z,4.47
2018-05-06T22:24:20.089Z,6.45
2018-05-06T22:26:47.495Z,5.78
2018-05-06T22:29:14.915Z,6.70
2018-05-06T22:31:42.322Z,6.45
2018-05-06T22:34:09.762Z,4.60
2018-05-06T22:36:37.136Z,6.35
2018-05-06T22:39:04.556Z,5.53
2018-05-06T22:41:32.027Z,5.75
2018-05-06T22:43:59.425Z,4.87
2018-05-06T22:46:26.826Z,5.20
2018-05-06T22:48:54.236Z,4.12
2018-05-06T22:51:21.660Z,3.58
2018-05-06T22:53:49.064Z,5.28
2018-05-06T22:56:16.477Z,4.82
2018-05-06T22:58:43.901Z,4.72
2018-05-06T23:01:11.296Z,5.95
2018-05-06T23:03:38.716Z,6.20
2018-05-06T23:06:06.120Z,6.20
2018-05-06T23:08:33.544Z,7.32
2018-05-06T23:11:00.947Z,6.05
2018-05-06T23:13:28.358Z,5.40
2018-05-06T23:15:55.777Z,4.65
2018-05-06T23:18:23.187Z,4.82
2018-05-06T23:20:50.626Z,5.93
2018-05-06T23:23:18.004Z,6.25
2018-05-06T23:25:45.428Z,5.55
2018-05-06T23:28:12.836Z,6.03
2018-05-06T23:30:40.267Z,4.78
2018-05-06T23:33:07.675Z,5.30
2018-05-06T23:35:35.127Z,5.18
2018-05-06T23:38:02.504Z,8.05
2018-05-06T23:40:29.912Z,5.57
2018-05-06T23:42:57.321Z,6.45
2018-05-06T23:45:24.739Z,5.50
2018-05-06T23:47:52.148Z,7.22
2018-05-06T23:50:19.564Z,4.93
2018-05-06T23:52:46.964Z,4.35
2018-05-06T23:55:14.438Z,4.25
2018-05-06T23:57:41.817Z,6.12
